Pituffik, Greenland

12:03 AM ADT on July 05, 2015 (GMT -0300)
Thule Air Base | | Change Station
CLOSE
Current Station
Airport
Location: Pituffik,
Elevation: 253 ft
Nearby Weather Stations

Elev 253 ft 76.53 °N, 68.75 °W | Updated 5 minutes ago

Overcast
Overcast
49 °F
Feels Like 49 °F
N
10
Wind Variable Wind from East
Gusts 17 mph

Today
High -- | Low -- °F
--% Chance of Precip.
Yesterday
High -- | Low -- °F
Precip. -- in
8:00 PM 8:00 PM
Waning Gibbous, 88% visible
Pressure 30.07 in
Visibility 6.2 miles
Clouds Overcast 8500 ft
Dew Point 36 °F
Humidity 61%
Rainfall 0.00 in
Snow Depth Not available.
UV 0 out of 12
Pollen Not available.
Air Quality Not available.
Flu Activity Not available.
METAR BGTL 050258Z AUTO 10009G15KT 9999 OVC085 10/02 A3012 RMK AO2 SLP182 P2400 67200 T00950024 50009 $

More Conditions Fewer Conditions

Pressure 30.07 in
Visibility 6.2 miles
Clouds Overcast 8500 ft
Dew Point 36 °F
Humidity 61%
Rainfall 0.00 in
Snow Depth Not available.
UV 0 out of 12
Pollen Not available.
Air Quality Not available.
Flu Activity Not available.
METAR BGTL 050258Z AUTO 10009G15KT 9999 OVC085 10/02 A3012 RMK AO2 SLP182 P2400 67200 T00950024 50009 $

More Conditions Fewer Conditions

10-Day Weather Forecast

×

Almanac

Astronomy

Jul. 05, 2015 Rise Set
Actual Time
Civil Twilight
Nautical Twilight
Astronomical Twilight
Moon
Length of Visible Light
Length of Day
Tomorrow will be .
, % of the Moon is Illuminated

Today's Extremes

Country Highs Country Lows

Community

WunderPhotos

Upload Photos

1,835,174 photos uploaded!

WunderBlogs® & News

Nearby

Air Quality

  Air Quality AQ Index Pollutant
Not available.

Snow Depth

Station Depth Elevation

Earthquake Activity

City Distance Mag. Time & Date
Minimum magnitude displayed is 2.5.

Coastal Water Temperatures

Place Temperature

Stations

Nearby Weather Stations

Station Location Temp. Windchill Dew Point Humidity Wind Precip. Elev Updated Type